createdAt,value
2023-01-03T00:00:02.004Z,6.3
2023-01-03T00:05:01.594Z,6.17
2023-01-03T00:10:02.128Z,6.16
2023-01-03T00:15:02.216Z,6.07
2023-01-03T00:20:01.975Z,5.8
2023-01-03T00:25:01.327Z,5.81
2023-01-03T00:30:01.973Z,5.96
2023-01-03T00:35:05.248Z,6.09
2023-01-03T00:40:02.245Z,6.23
2023-01-03T00:45:01.630Z,6.37
2023-01-03T00:50:02.209Z,6.51
2023-01-03T00:55:01.759Z,6.51
2023-01-03T01:00:01.465Z,6.57
2023-01-03T01:05:01.375Z,6.57
2023-01-03T01:10:01.543Z,6.64
2023-01-03T01:15:01.880Z,6.65
2023-01-03T01:20:02.244Z,6.63
2023-01-03T01:25:01.481Z,6.67
2023-01-03T01:30:02.210Z,6.7
2023-01-03T01:35:01.520Z,6.73
2023-01-03T01:40:01.963Z,6.71
2023-01-03T01:45:01.439Z,6.51
2023-01-03T01:50:01.940Z,6.71
2023-01-03T01:55:02.118Z,6.67
2023-01-03T02:00:02.159Z,6.7
2023-01-03T02:05:01.411Z,6.7
2023-01-03T02:10:02.158Z,6.74
2023-01-03T02:15:01.650Z,6.73
2023-01-03T02:20:02.095Z,6.79
2023-01-03T02:25:01.766Z,6.78
2023-01-03T02:30:02.094Z,6.71
2023-01-03T02:35:01.501Z,6.82
2023-01-03T02:40:02.232Z,6.72
2023-01-03T02:45:01.656Z,6.71
2023-01-03T02:50:02.149Z,6.74
2023-01-03T02:55:01.568Z,6.73
2023-01-03T03:00:01.382Z,6.73
2023-01-03T03:05:01.768Z,6.74
2023-01-03T03:10:02.123Z,6.72
2023-01-03T03:15:01.360Z,6.72
2023-01-03T03:20:06.213Z,6.74
2023-01-03T03:25:01.926Z,6.75
2023-01-03T03:30:01.347Z,6.78
2023-01-03T03:35:01.736Z,6.75
2023-01-03T03:40:01.760Z,6.8
2023-01-03T03:45:02.644Z,7.02
2023-01-03T03:50:02.209Z,6.78
2023-01-03T03:55:01.329Z,6.74
2023-01-03T04:00:01.733Z,6.91
2023-01-03T04:05:02.044Z,6.97
2023-01-03T04:10:01.294Z,6.85
2023-01-03T04:15:01.843Z,6.83
2023-01-03T04:20:02.057Z,6.79
2023-01-03T04:25:01.405Z,6.76
2023-01-03T04:30:01.541Z,6.78
2023-01-03T04:35:02.129Z,6.85
2023-01-03T04:40:01.279Z,6.91
2023-01-03T04:45:01.471Z,6.97
2023-01-03T04:50:02.072Z,6.93
2023-01-03T04:55:02.061Z,6.74
2023-01-03T05:00:02.065Z,6.82
2023-01-03T05:05:02.149Z,6.75
2023-01-03T05:10:01.332Z,6.81
2023-01-03T05:15:01.611Z,6.82
2023-01-03T05:20:01.991Z,6.94
2023-01-03T05:25:02.144Z,6.85
2023-01-03T05:30:01.325Z,6.7
2023-01-03T05:35:01.864Z,6.63
2023-01-03T05:40:01.904Z,6.67
2023-01-03T05:45:01.965Z,6.38
2023-01-03T05:50:02.111Z,6.44
2023-01-03T05:55:01.552Z,6.14
2023-01-03T06:00:01.793Z,6.08
2023-01-03T06:05:02.118Z,6.06
2023-01-03T06:10:01.324Z,5.9
2023-01-03T06:15:01.884Z,5.91
2023-01-03T06:20:01.767Z,5.83
2023-01-03T06:25:01.716Z,5.78
2023-01-03T06:30:01.963Z,5.76
2023-01-03T06:35:02.073Z,5.74
2023-01-03T06:40:01.389Z,5.69
2023-01-03T06:45:01.748Z,5.83
2023-01-03T06:50:02.169Z,5.81
2023-01-03T06:55:01.419Z,5.64
2023-01-03T07:00:01.587Z,5.68
2023-01-03T07:05:01.977Z,5.67
2023-01-03T07:10:02.138Z,5.72
2023-01-03T07:15:02.218Z,5.72
2023-01-03T07:20:01.981Z,5.93
2023-01-03T07:25:02.110Z,5.8
2023-01-03T07:30:01.454Z,5.7
2023-01-03T07:35:01.833Z,5.78
2023-01-03T07:40:01.372Z,5.52
2023-01-03T07:45:01.588Z,5.69
2023-01-03T07:50:01.271Z,5.52
2023-01-03T07:55:01.615Z,5.71
2023-01-03T08:00:02.360Z,5.7
2023-01-03T08:05:01.883Z,5.95
2023-01-03T08:10:02.170Z,5.84
2023-01-03T08:15:01.514Z,5.98
2023-01-03T08:20:01.729Z,6.1
2023-01-03T08:25:02.163Z,6.23
2023-01-03T08:30:02.298Z,6.37
2023-01-03T08:35:01.298Z,6.4
2023-01-03T08:40:01.370Z,6.61
2023-01-03T08:45:01.607Z,6.78
2023-01-03T08:50:02.092Z,6.89
2023-01-03T08:55:02.035Z,6.93
2023-01-03T09:00:01.378Z,6.95
2023-01-03T09:05:01.642Z,7.05
2023-01-03T09:10:02.021Z,7.1
2023-01-03T09:15:02.302Z,7.2
2023-01-03T09:20:02.122Z,7.33
2023-01-03T09:25:02.226Z,7.49
2023-01-03T09:30:02.118Z,7.62
2023-01-03T09:35:01.514Z,7.69
2023-01-03T09:40:01.450Z,7.82
2023-01-03T09:45:01.550Z,7.96
2023-01-03T09:50:44.313Z,8.12
2023-01-03T09:55:02.230Z,8.2
2023-01-03T10:00:01.317Z,8.36
2023-01-03T10:05:01.770Z,8.44
2023-01-03T10:10:02.248Z,8.56
2023-01-03T10:15:02.208Z,8.67
2023-01-03T10:20:02.333Z,8.8
2023-01-03T10:25:01.785Z,8.79
2023-01-03T10:30:01.315Z,8.91
2023-01-03T10:35:01.636Z,8.91
2023-01-03T10:40:02.101Z,8.97
2023-01-03T10:45:02.166Z,9.11
2023-01-03T10:50:01.421Z,9.18
2023-01-03T10:55:01.726Z,9.23
2023-01-03T11:00:02.242Z,9.27
2023-01-03T11:05:01.409Z,9.31
2023-01-03T11:10:01.286Z,9.31
2023-01-03T11:15:01.485Z,9.37
2023-01-03T11:20:01.865Z,9.35
2023-01-03T11:25:01.995Z,9.3
2023-01-03T11:30:01.340Z,9.34
2023-01-03T11:35:24.871Z,9.34
2023-01-03T11:40:01.678Z,9.36
2023-01-03T11:45:01.268Z,9.45
2023-01-03T11:50:01.733Z,9.53
2023-01-03T11:55:02.091Z,9.71
2023-01-03T12:00:02.193Z,9.84
2023-01-03T12:05:01.478Z,9.82
2023-01-03T12:10:02.202Z,9.7
2023-01-03T12:15:02.208Z,9.68
2023-01-03T12:20:01.416Z,9.66
2023-01-03T12:25:05.527Z,9.65
2023-01-03T12:30:01.436Z,9.74
2023-01-03T12:35:01.803Z,9.76
2023-01-03T12:40:02.105Z,9.71
2023-01-03T12:45:01.398Z,9.71
2023-01-03T12:50:01.754Z,9.84
2023-01-03T12:55:02.060Z,9.89
2023-01-03T13:00:02.315Z,9.86
2023-01-03T13:05:01.473Z,9.81
2023-01-03T13:10:02.226Z,9.77
2023-01-03T13:15:01.345Z,9.76
2023-01-03T13:20:01.620Z,9.76
2023-01-03T13:25:01.888Z,9.67
2023-01-03T13:30:01.476Z,9.61
2023-01-03T13:35:01.930Z,9.65
2023-01-03T13:40:01.905Z,9.69
2023-01-03T13:45:01.761Z,9.69
2023-01-03T13:50:01.364Z,9.76
2023-01-03T13:55:01.752Z,9.75
2023-01-03T14:00:02.247Z,9.71
2023-01-03T14:05:01.786Z,9.68
2023-01-03T14:10:02.161Z,9.68
2023-01-03T14:15:01.311Z,9.67
2023-01-03T14:20:01.843Z,9.56
2023-01-03T14:25:02.041Z,9.46
2023-01-03T14:30:01.667Z,9.45
2023-01-03T14:35:01.974Z,9.35
2023-01-03T14:40:02.095Z,9.17
2023-01-03T14:45:02.215Z,9.11
2023-01-03T14:50:01.357Z,9.07
2023-01-03T14:55:04.274Z,8.94
2023-01-03T15:00:02.050Z,8.79
2023-01-03T15:05:02.238Z,8.72
2023-01-03T15:10:01.567Z,8.59
2023-01-03T15:15:01.462Z,8.5
2023-01-03T15:20:01.913Z,8.32
2023-01-03T15:25:02.094Z,8.19
2023-01-03T15:30:01.517Z,8.12
2023-01-03T15:35:01.458Z,8.04
2023-01-03T15:40:02.451Z,7.92
2023-01-03T15:45:01.660Z,7.92
2023-01-03T15:50:01.621Z,7.91
2023-01-03T15:55:01.758Z,7.88
2023-01-03T16:00:02.308Z,7.74
2023-01-03T16:05:02.021Z,7.71
2023-01-03T16:10:02.162Z,7.6
2023-01-03T16:15:02.060Z,7.54
2023-01-03T16:20:01.497Z,7.46
2023-01-03T16:25:02.004Z,7.44
2023-01-03T16:30:01.925Z,7.33
2023-01-03T16:35:02.111Z,7.25
2023-01-03T16:40:01.795Z,7.27
2023-01-03T16:45:01.954Z,7.29
2023-01-03T16:50:01.473Z,7.23
2023-01-03T16:55:01.838Z,7.22
2023-01-03T17:00:01.696Z,7.22
2023-01-03T17:05:01.266Z,7.16
2023-01-03T17:10:01.715Z,7.09
2023-01-03T17:15:01.336Z,7.03
2023-01-03T17:20:04.966Z,7.05
2023-01-03T17:25:01.499Z,7.1
2023-01-03T17:30:01.944Z,7.07
2023-01-03T17:35:02.002Z,7.04
2023-01-03T17:40:01.457Z,7.08
2023-01-03T17:45:01.404Z,7
2023-01-03T17:50:02.060Z,6.93
2023-01-03T17:55:02.213Z,6.95
2023-01-03T18:00:02.536Z,6.96
2023-01-03T18:05:24.489Z,7.02
2023-01-03T18:10:01.780Z,7.01
2023-01-03T18:15:01.503Z,7.08
2023-01-03T18:20:01.996Z,7.1
2023-01-03T18:25:01.969Z,7.08
2023-01-03T18:30:01.375Z,7.09
2023-01-03T18:35:01.773Z,7.19
2023-01-03T18:40:02.312Z,7.26
2023-01-03T18:45:01.415Z,7.29
2023-01-03T18:50:01.904Z,7.33
2023-01-03T18:55:01.325Z,7.31
2023-01-03T19:00:01.941Z,7.33
2023-01-03T19:05:02.199Z,7.37
2023-01-03T19:10:01.733Z,7.34
2023-01-03T19:15:01.999Z,7.35
2023-01-03T19:20:01.708Z,7.53
2023-01-03T19:25:02.191Z,7.53
2023-01-03T19:30:01.783Z,7.65
2023-01-03T19:35:02.189Z,7.7
2023-01-03T19:40:01.281Z,7.69
2023-01-03T19:45:01.592Z,7.69
2023-01-03T19:50:06.246Z,7.79
2023-01-03T19:55:01.689Z,7.83
2023-01-03T20:00:02.236Z,7.76
2023-01-03T20:05:02.157Z,7.73
2023-01-03T20:10:02.279Z,7.7
2023-01-03T20:15:06.954Z,7.75
2023-01-03T20:20:02.303Z,7.82
2023-01-03T20:25:01.371Z,7.82
2023-01-03T20:30:01.591Z,7.81
2023-01-03T20:35:18.887Z,7.77
2023-01-03T20:40:02.148Z,7.84
2023-01-03T20:45:01.384Z,7.84
2023-01-03T20:50:01.988Z,7.83
2023-01-03T20:55:02.259Z,7.87
2023-01-03T21:00:01.925Z,7.69
2023-01-03T21:05:01.672Z,7.6
2023-01-03T21:10:01.735Z,7.56
2023-01-03T21:15:01.771Z,7.49
2023-01-03T21:20:01.295Z,7.58
2023-01-03T21:25:01.772Z,7.55
2023-01-03T21:30:02.017Z,7.53
2023-01-03T21:35:02.257Z,7.42
2023-01-03T21:40:01.406Z,7.38
2023-01-03T21:45:01.825Z,7.46
2023-01-03T21:50:02.258Z,7.53
2023-01-03T21:55:01.616Z,7.57
2023-01-03T22:00:02.470Z,7.58
2023-01-03T22:05:01.685Z,7.62
2023-01-03T22:10:01.313Z,7.65
2023-01-03T22:15:01.394Z,7.73
2023-01-03T22:20:01.538Z,7.73
2023-01-03T22:25:01.737Z,7.64
2023-01-03T22:30:02.041Z,7.7
2023-01-03T22:35:02.121Z,7.68
2023-01-03T22:40:02.089Z,7.6
2023-01-03T22:45:02.224Z,7.56
2023-01-03T22:50:01.272Z,7.5
2023-01-03T22:55:01.695Z,7.41
2023-01-03T23:00:02.028Z,7.53
2023-01-03T23:05:01.284Z,7.54
2023-01-03T23:10:01.702Z,7.57
2023-01-03T23:15:01.805Z,7.67
2023-01-03T23:20:01.989Z,7.74
2023-01-03T23:25:01.991Z,7.74
2023-01-03T23:30:01.851Z,7.82
2023-01-03T23:35:01.822Z,7.85
2023-01-03T23:40:01.752Z,7.83
2023-01-03T23:45:01.616Z,7.86
2023-01-03T23:50:01.792Z,8.02
2023-01-03T23:55:08.464Z,8.06
